createdAt,value
2018-07-14T00:01:42.024Z,73.10
2018-07-14T00:04:10.961Z,73.44
2018-07-14T00:06:39.918Z,73.26
2018-07-14T00:09:08.583Z,73.74
2018-07-14T00:11:37.955Z,73.79
2018-07-14T00:14:06.712Z,72.86
2018-07-14T00:16:35.603Z,72.50
2018-07-14T00:19:04.334Z,70.77
2018-07-14T00:21:33.035Z,71.33
2018-07-14T00:24:02.179Z,70.82
2018-07-14T00:26:31.358Z,71.60
2018-07-14T00:29:00.027Z,71.78
2018-07-14T00:31:29.648Z,71.35
2018-07-14T00:33:58.615Z,71.09
2018-07-14T00:36:27.502Z,70.88
2018-07-14T00:38:56.466Z,70.42
2018-07-14T00:41:25.484Z,69.63
2018-07-14T00:43:54.139Z,68.90
2018-07-14T00:46:23.077Z,69.11
2018-07-14T00:48:51.999Z,68.87
2018-07-14T00:51:20.768Z,69.23
2018-07-14T00:53:49.491Z,69.44
2018-07-14T00:56:18.439Z,68.73
2018-07-14T00:58:47.387Z,69.05
2018-07-14T01:01:16.691Z,69.43
2018-07-14T01:03:45.362Z,68.61
2018-07-14T01:06:14.155Z,68.12
2018-07-14T01:08:42.863Z,68.27
2018-07-14T01:11:11.545Z,68.46
2018-07-14T01:13:40.349Z,68.10
2018-07-14T01:16:09.119Z,67.84
2018-07-14T01:18:37.786Z,68.09
2018-07-14T01:21:06.514Z,67.46
2018-07-14T01:23:35.525Z,68.54
2018-07-14T01:26:04.502Z,67.83
2018-07-14T01:28:33.208Z,68.38
2018-07-14T01:31:02.007Z,68.26
2018-07-14T01:33:30.824Z,67.08
2018-07-14T01:35:59.540Z,67.67
2018-07-14T01:38:28.270Z,67.31
2018-07-14T01:40:57.176Z,67.72
2018-07-14T01:43:26.193Z,67.70
2018-07-14T01:45:56.008Z,66.84
2018-07-14T01:48:24.896Z,68.55
2018-07-14T01:50:53.599Z,68.04
2018-07-14T01:53:22.322Z,67.78
2018-07-14T01:55:51.118Z,67.53
2018-07-14T01:58:19.883Z,68.20
2018-07-14T02:00:48.584Z,67.99
2018-07-14T02:03:17.479Z,69.35
2018-07-14T02:05:46.117Z,69.02
2018-07-14T02:08:14.875Z,69.00
2018-07-14T02:10:43.812Z,68.17
2018-07-14T02:13:12.749Z,68.29
2018-07-14T02:15:41.389Z,68.09
2018-07-14T02:18:10.071Z,68.30
2018-07-14T02:20:39.095Z,68.29
2018-07-14T02:23:07.742Z,68.85
2018-07-14T02:25:36.517Z,68.50
2018-07-14T02:28:05.197Z,68.45
2018-07-14T02:30:33.894Z,68.28
2018-07-14T02:33:02.535Z,68.35
2018-07-14T02:35:31.191Z,69.29
2018-07-14T02:37:59.874Z,69.23
2018-07-14T02:40:29.091Z,68.93
2018-07-14T02:42:57.811Z,69.00
2018-07-14T02:45:26.563Z,69.46
2018-07-14T02:47:55.885Z,69.79
2018-07-14T02:50:24.519Z,69.11
2018-07-14T02:52:53.448Z,69.74
2018-07-14T02:55:22.229Z,70.50
2018-07-14T02:57:51.021Z,70.47
2018-07-14T03:00:19.940Z,70.90
2018-07-14T03:02:48.716Z,69.61
2018-07-14T03:05:17.371Z,69.50
2018-07-14T03:07:46.116Z,69.26
2018-07-14T03:10:14.860Z,70.65
2018-07-14T03:12:43.503Z,69.73
2018-07-14T03:15:12.440Z,70.33
2018-07-14T03:17:41.479Z,70.09
2018-07-14T03:20:10.396Z,70.04
2018-07-14T03:22:39.071Z,70.47
2018-07-14T03:25:07.755Z,69.64
2018-07-14T03:27:37.125Z,70.22
2018-07-14T03:30:07.286Z,69.61
2018-07-14T03:32:36.033Z,68.67
2018-07-14T03:35:05.063Z,69.88
2018-07-14T03:37:33.848Z,70.59
2018-07-14T03:40:02.838Z,68.77
2018-07-14T03:42:31.508Z,69.99
2018-07-14T03:45:00.652Z,69.36
2018-07-14T03:47:29.356Z,68.63
2018-07-14T03:49:58.091Z,68.53
2018-07-14T03:52:26.831Z,68.13
2018-07-14T03:54:55.516Z,68.07
2018-07-14T03:57:24.206Z,68.81
2018-07-14T03:59:53.107Z,68.12
2018-07-14T04:02:21.788Z,68.62
2018-07-14T04:04:50.466Z,68.67
2018-07-14T04:07:19.335Z,68.25
2018-07-14T04:09:48.178Z,68.19
2018-07-14T04:12:16.939Z,68.75
2018-07-14T04:14:46.019Z,68.59
2018-07-14T04:17:14.702Z,68.47
2018-07-14T04:19:43.440Z,68.11
2018-07-14T04:22:12.222Z,67.62
2018-07-14T04:24:40.975Z,68.24
2018-07-14T04:27:09.703Z,67.64
2018-07-14T04:29:38.423Z,67.73
2018-07-14T04:32:07.499Z,68.18
2018-07-14T04:34:36.192Z,68.03
2018-07-14T04:37:04.913Z,66.93
2018-07-14T04:39:33.607Z,67.92
2018-07-14T04:42:02.300Z,66.54
2018-07-14T04:44:31.004Z,67.46
2018-07-14T04:46:59.975Z,66.99
2018-07-14T04:49:28.660Z,67.26
2018-07-14T04:51:57.354Z,67.44
2018-07-14T04:54:25.995Z,66.21
2018-07-14T04:56:54.733Z,66.54
2018-07-14T04:59:23.377Z,65.62
2018-07-14T05:01:53.276Z,65.08
2018-07-14T05:04:22.415Z,66.20
2018-07-14T05:06:51.374Z,64.96
2018-07-14T05:09:20.792Z,64.96
2018-07-14T05:11:50.163Z,63.77
2018-07-14T05:14:19.550Z,63.43
2018-07-14T05:16:49.249Z,62.21
2018-07-14T05:19:18.474Z,62.73
2018-07-14T05:21:47.613Z,60.24
2018-07-14T05:24:17.140Z,58.95
2018-07-14T05:26:46.081Z,58.35
2018-07-14T05:29:15.501Z,57.92
2018-07-14T05:31:44.692Z,56.96
2018-07-14T05:34:13.835Z,56.76
2018-07-14T05:36:43.563Z,56.11
2018-07-14T05:39:12.477Z,56.85
2018-07-14T05:41:41.332Z,56.62
2018-07-14T05:44:10.451Z,53.94
2018-07-14T05:46:39.255Z,52.99
2018-07-14T05:49:08.187Z,54.45
2018-07-14T05:51:37.992Z,53.05
2018-07-14T05:54:07.136Z,51.71
2018-07-14T05:56:36.219Z,51.29
2018-07-14T05:59:05.135Z,51.24
2018-07-14T06:01:34.945Z,50.18
2018-07-14T06:04:04.060Z,51.14
2018-07-14T06:06:33.419Z,49.59
2018-07-14T06:09:03.977Z,49.80
2018-07-14T06:11:32.848Z,48.78
2018-07-14T06:14:01.710Z,48.67
2018-07-14T06:16:30.630Z,48.29
2018-07-14T06:19:00.510Z,47.67
2018-07-14T06:21:30.242Z,47.58
2018-07-14T06:23:59.585Z,47.92
2018-07-14T06:26:28.467Z,46.31
2018-07-14T06:28:57.630Z,46.33
2018-07-14T06:31:26.707Z,47.02
2018-07-14T06:33:56.957Z,45.87
2018-07-14T06:36:25.769Z,45.16
2018-07-14T06:38:55.325Z,45.38
2018-07-14T06:41:24.158Z,44.57
2018-07-14T06:43:53.051Z,45.06
2018-07-14T06:46:21.914Z,45.41
2018-07-14T06:48:50.723Z,48.00
2018-07-14T06:51:19.723Z,49.36
2018-07-14T06:53:48.768Z,49.59
2018-07-14T06:56:17.688Z,48.66
2018-07-14T06:58:46.645Z,47.11
2018-07-14T07:01:15.560Z,49.48
2018-07-14T07:03:44.923Z,48.36
2018-07-14T07:06:13.638Z,48.99
2018-07-14T07:08:42.359Z,45.18
2018-07-14T07:11:11.244Z,43.27
2018-07-14T07:13:40.022Z,44.48
2018-07-14T07:16:08.937Z,46.13
2018-07-14T07:18:37.755Z,46.57
2018-07-14T07:21:06.686Z,43.76
2018-07-14T07:23:35.407Z,43.44
2018-07-14T07:26:04.085Z,41.54
2018-07-14T07:28:33.087Z,41.03
2018-07-14T07:31:01.783Z,40.86
2018-07-14T07:33:31.240Z,39.10
2018-07-14T07:35:59.900Z,39.45
2018-07-14T07:38:28.566Z,40.30
2018-07-14T07:41:11.815Z,37.88
2018-07-14T07:43:40.770Z,39.43
2018-07-14T07:46:09.416Z,38.73
2018-07-14T07:48:38.108Z,41.66
2018-07-14T07:51:06.819Z,43.13
2018-07-14T07:53:35.534Z,44.85
2018-07-14T07:56:04.257Z,44.31
2018-07-14T07:58:32.955Z,43.23
2018-07-14T08:01:01.641Z,42.46
2018-07-14T08:03:30.330Z,41.77
2018-07-14T08:05:59.003Z,40.29
2018-07-14T08:08:27.699Z,39.93
2018-07-14T08:10:56.391Z,39.53
2018-07-14T08:13:25.043Z,38.39
2018-07-14T08:15:53.698Z,39.80
2018-07-14T08:18:22.538Z,37.68
2018-07-14T08:20:51.263Z,37.18
2018-07-14T08:23:20.120Z,38.69
2018-07-14T08:25:48.791Z,41.88
2018-07-14T08:28:17.496Z,41.88
2018-07-14T08:30:46.339Z,42.37
2018-07-14T08:33:14.998Z,43.17
2018-07-14T08:35:43.678Z,44.13
2018-07-14T08:38:12.502Z,45.48
2018-07-14T08:40:41.173Z,45.36
2018-07-14T08:43:09.951Z,45.52
2018-07-14T08:45:38.723Z,44.99
2018-07-14T08:48:07.529Z,46.37
2018-07-14T08:50:37.049Z,43.28
2018-07-14T08:53:05.632Z,40.92
2018-07-14T08:55:34.295Z,38.79
2018-07-14T08:58:11.885Z,37.06
2018-07-14T09:00:46.569Z,36.88
2018-07-14T09:03:19.327Z,38.87
2018-07-14T09:05:48.096Z,39.70
2018-07-14T09:08:16.763Z,42.52
2018-07-14T09:10:45.564Z,43.03
2018-07-14T09:13:14.270Z,40.58
2018-07-14T09:15:42.940Z,37.40
2018-07-14T09:18:11.702Z,39.05
2018-07-14T09:20:40.415Z,38.17
2018-07-14T09:23:09.057Z,38.00
2018-07-14T09:25:37.766Z,38.06
2018-07-14T09:28:06.489Z,36.11
2018-07-14T09:30:35.202Z,36.28
2018-07-14T09:33:03.829Z,34.78
2018-07-14T09:35:32.634Z,34.50
2018-07-14T09:38:01.317Z,35.10
2018-07-14T09:40:30.008Z,37.80
2018-07-14T09:42:58.624Z,39.92
2018-07-14T09:45:27.288Z,39.89
2018-07-14T09:47:56.255Z,39.79
2018-07-14T09:50:24.904Z,41.30
2018-07-14T09:52:53.592Z,41.48
2018-07-14T09:55:22.377Z,40.36
2018-07-14T09:57:50.989Z,40.34
2018-07-14T10:00:24.779Z,37.88
2018-07-14T10:02:53.510Z,35.61
2018-07-14T10:05:22.178Z,35.58
2018-07-14T10:07:50.835Z,35.91
2018-07-14T10:10:19.551Z,38.09
2018-07-14T10:12:48.271Z,39.25
2018-07-14T10:15:17.008Z,41.27
2018-07-14T10:17:45.714Z,42.10
2018-07-14T10:20:14.408Z,42.45
2018-07-14T10:22:43.083Z,41.22
2018-07-14T10:25:11.781Z,42.33
2018-07-14T10:27:40.426Z,42.28
2018-07-14T10:30:09.166Z,44.14
2018-07-14T10:32:37.798Z,42.15
2018-07-14T10:35:06.681Z,41.71
2018-07-14T10:37:35.412Z,40.18
2018-07-14T10:40:04.173Z,40.99
2018-07-14T10:42:33.413Z,40.00
2018-07-14T10:45:02.057Z,41.77
2018-07-14T10:47:30.755Z,41.48
2018-07-14T10:49:59.442Z,43.07
2018-07-14T10:52:28.128Z,42.25
2018-07-14T10:54:57.042Z,42.82
2018-07-14T10:57:25.695Z,42.75
2018-07-14T10:59:54.366Z,43.25
2018-07-14T11:02:22.986Z,42.84
2018-07-14T11:04:53.204Z,43.42
2018-07-14T11:07:21.886Z,44.02
2018-07-14T11:09:50.522Z,44.61
2018-07-14T11:12:19.162Z,41.91
2018-07-14T11:14:47.799Z,39.81
2018-07-14T11:17:16.463Z,37.35
2018-07-14T11:19:45.211Z,34.41
2018-07-14T11:22:13.916Z,37.15
2018-07-14T11:24:42.659Z,37.34
2018-07-14T11:27:11.317Z,39.20
2018-07-14T11:29:39.979Z,39.39
2018-07-14T11:32:08.691Z,42.73
2018-07-14T11:34:37.433Z,40.33
2018-07-14T11:37:06.113Z,37.64
2018-07-14T11:39:35.089Z,37.13
2018-07-14T11:42:03.831Z,38.55
2018-07-14T11:44:32.495Z,38.66
2018-07-14T11:47:01.212Z,37.69
2018-07-14T11:49:30.362Z,38.38
2018-07-14T11:51:59.242Z,39.34
2018-07-14T11:54:27.902Z,39.81
2018-07-14T11:56:56.581Z,40.33
2018-07-14T11:59:25.513Z,41.68
2018-07-14T12:01:54.260Z,42.90
2018-07-14T12:04:22.890Z,41.81
2018-07-14T12:06:51.639Z,41.53
2018-07-14T12:09:20.287Z,40.82
2018-07-14T12:11:48.983Z,41.48
2018-07-14T12:14:17.607Z,41.72
2018-07-14T12:16:46.366Z,41.83
2018-07-14T12:19:15.009Z,42.01
2018-07-14T12:21:43.691Z,43.58
2018-07-14T12:24:12.360Z,42.59
2018-07-14T12:26:41.063Z,44.36
2018-07-14T12:29:09.705Z,43.73
2018-07-14T12:31:38.436Z,44.93
2018-07-14T12:34:07.560Z,45.42
2018-07-14T12:36:36.217Z,45.76
2018-07-14T12:39:05.361Z,46.13
2018-07-14T12:41:34.021Z,45.17
2018-07-14T12:44:02.731Z,44.63
2018-07-14T12:46:31.524Z,42.84
2018-07-14T12:49:00.260Z,41.38
2018-07-14T12:51:29.228Z,40.49
2018-07-14T12:53:57.991Z,41.10
2018-07-14T12:56:26.629Z,41.60
2018-07-14T12:58:55.952Z,42.74
2018-07-14T13:01:24.643Z,42.73
2018-07-14T13:03:53.478Z,42.34
2018-07-14T13:06:22.180Z,41.43
2018-07-14T13:08:51.135Z,41.16
2018-07-14T13:11:19.929Z,41.83
2018-07-14T13:13:48.633Z,42.12
2018-07-14T13:16:17.362Z,42.14
2018-07-14T13:18:46.092Z,43.33
2018-07-14T13:21:14.768Z,44.51
2018-07-14T13:23:43.470Z,43.52
2018-07-14T13:26:12.224Z,44.80
2018-07-14T13:28:40.928Z,45.28
2018-07-14T13:31:09.615Z,46.56
2018-07-14T13:33:38.565Z,47.06
2018-07-14T13:36:07.256Z,47.20
2018-07-14T13:38:35.941Z,48.12
2018-07-14T13:41:04.620Z,48.51
2018-07-14T13:43:33.311Z,48.91
2018-07-14T13:46:02.069Z,47.54
2018-07-14T13:48:30.706Z,46.85
2018-07-14T13:51:00.135Z,46.02
2018-07-14T13:53:29.167Z,45.89
2018-07-14T13:55:57.971Z,46.42
2018-07-14T13:58:26.791Z,45.82
2018-07-14T14:00:55.635Z,46.15
2018-07-14T14:03:24.419Z,45.67
2018-07-14T14:05:53.563Z,45.93
2018-07-14T14:08:22.326Z,45.03
2018-07-14T14:10:51.327Z,45.20
2018-07-14T14:13:20.114Z,43.99
2018-07-14T14:15:48.878Z,43.28
2018-07-14T14:18:17.822Z,43.05
2018-07-14T14:20:46.841Z,45.08
2018-07-14T14:23:15.568Z,44.17
2018-07-14T14:25:44.707Z,44.58
2018-07-14T14:28:13.725Z,46.07
2018-07-14T14:30:42.510Z,45.90
2018-07-14T14:33:11.220Z,45.35
2018-07-14T14:35:39.928Z,46.22
2018-07-14T14:38:08.651Z,45.99
2018-07-14T14:40:37.434Z,45.55
2018-07-14T14:43:06.144Z,45.56
2018-07-14T14:45:35.005Z,45.48
2018-07-14T14:48:03.789Z,45.92
2018-07-14T14:50:33.085Z,47.05
2018-07-14T14:53:01.792Z,47.28
2018-07-14T14:55:31.330Z,47.40
2018-07-14T14:58:00.080Z,46.74
2018-07-14T15:00:28.889Z,45.88
2018-07-14T15:02:57.920Z,45.96
2018-07-14T15:05:26.659Z,45.85
2018-07-14T15:07:55.400Z,45.21
2018-07-14T15:10:24.107Z,44.30
2018-07-14T15:12:52.896Z,43.55
2018-07-14T15:15:22.888Z,43.72
2018-07-14T15:17:51.962Z,43.79
2018-07-14T15:20:20.772Z,43.60
2018-07-14T15:22:49.599Z,43.81
2018-07-14T15:25:18.600Z,43.82
2018-07-14T15:27:47.314Z,43.72
2018-07-14T15:30:16.074Z,44.67
2018-07-14T15:32:44.870Z,44.41
2018-07-14T15:35:13.618Z,44.19
2018-07-14T15:37:42.356Z,43.32
2018-07-14T15:40:11.637Z,44.40
2018-07-14T15:42:40.440Z,44.08
2018-07-14T15:45:09.510Z,43.44
2018-07-14T15:47:38.191Z,43.03
2018-07-14T15:50:07.408Z,42.43
2018-07-14T15:52:36.170Z,42.76
2018-07-14T15:55:05.007Z,43.06
2018-07-14T15:57:33.904Z,42.81
2018-07-14T16:00:02.750Z,42.59
2018-07-14T16:02:31.518Z,42.58
2018-07-14T16:05:00.311Z,43.44
2018-07-14T16:07:29.216Z,43.12
2018-07-14T16:09:58.261Z,42.85
2018-07-14T16:12:26.987Z,42.40
2018-07-14T16:14:55.666Z,42.64
2018-07-14T16:17:24.480Z,42.13
2018-07-14T16:19:53.411Z,41.84
2018-07-14T16:22:22.584Z,41.99
2018-07-14T16:24:51.428Z,42.31
2018-07-14T16:27:20.392Z,42.58
2018-07-14T16:29:49.399Z,43.50
2018-07-14T16:32:18.813Z,43.91
2018-07-14T16:34:47.901Z,43.73
2018-07-14T16:37:17.036Z,44.19
2018-07-14T16:39:45.904Z,45.02
2018-07-14T16:42:14.578Z,44.54
2018-07-14T16:44:43.616Z,44.16
2018-07-14T16:47:12.724Z,44.84
2018-07-14T16:49:41.466Z,44.79
2018-07-14T16:52:10.279Z,45.02
2018-07-14T16:54:39.023Z,45.07
2018-07-14T16:57:07.926Z,45.71
2018-07-14T16:59:36.624Z,45.89
2018-07-14T17:02:06.452Z,45.51
2018-07-14T17:04:35.885Z,45.22
2018-07-14T17:07:04.976Z,45.71
2018-07-14T17:09:35.187Z,46.53
2018-07-14T17:12:03.868Z,46.24
2018-07-14T17:14:32.590Z,46.04
2018-07-14T17:17:01.471Z,46.40
2018-07-14T17:19:30.692Z,46.94
2018-07-14T17:21:59.715Z,46.90
2018-07-14T17:24:28.992Z,46.97
2018-07-14T17:26:58.313Z,46.99
2018-07-14T17:29:28.420Z,48.25
2018-07-14T17:31:58.331Z,48.80
2018-07-14T17:34:27.727Z,48.22
2018-07-14T17:36:59.188Z,48.87
2018-07-14T17:39:28.958Z,49.87
2018-07-14T17:41:58.723Z,49.50
2018-07-14T17:44:27.988Z,50.46
2018-07-14T17:46:57.864Z,50.94
2018-07-14T17:49:26.561Z,51.43
2018-07-14T17:51:55.675Z,51.61
2018-07-14T17:54:24.798Z,51.07
2018-07-14T17:56:54.487Z,52.11
2018-07-14T17:59:23.204Z,51.70
2018-07-14T18:01:52.960Z,52.63
2018-07-14T18:04:22.260Z,52.82
2018-07-14T18:06:52.251Z,52.83
2018-07-14T18:09:21.287Z,52.48
2018-07-14T18:11:50.211Z,53.60
2018-07-14T18:14:19.797Z,53.34
2018-07-14T18:16:49.533Z,53.14
2018-07-14T18:19:18.792Z,53.66
2018-07-14T18:21:47.834Z,53.65
2018-07-14T18:24:17.202Z,54.10
2018-07-14T18:26:46.364Z,55.12
2018-07-14T18:29:15.724Z,55.36
2018-07-14T18:31:44.685Z,54.74
2018-07-14T18:34:13.419Z,56.23
2018-07-14T18:36:43.909Z,55.41
2018-07-14T18:39:13.140Z,56.69
2018-07-14T18:41:41.800Z,56.43
2018-07-14T18:44:10.579Z,56.68
2018-07-14T18:46:39.267Z,56.42
2018-07-14T18:49:08.395Z,57.59
2018-07-14T18:51:37.248Z,56.52
2018-07-14T18:54:06.291Z,56.93
2018-07-14T18:56:35.423Z,57.55
2018-07-14T18:59:04.718Z,58.59
2018-07-14T19:01:33.932Z,58.36
2018-07-14T19:04:02.654Z,59.59
2018-07-14T19:06:31.475Z,59.69
2018-07-14T19:09:00.429Z,59.40
2018-07-14T19:11:29.230Z,59.29
2018-07-14T19:13:57.963Z,59.43
2018-07-14T19:16:26.964Z,58.84
2018-07-14T19:18:55.712Z,59.53
2018-07-14T19:21:25.527Z,60.17
2018-07-14T19:23:54.515Z,60.77
2018-07-14T19:26:23.351Z,60.48
2018-07-14T19:28:52.561Z,60.29
2018-07-14T19:31:21.269Z,60.53
2018-07-14T19:33:50.041Z,60.82
2018-07-14T19:36:19.031Z,60.49
2018-07-14T19:38:47.951Z,60.81
2018-07-14T19:41:16.642Z,60.70
2018-07-14T19:43:45.319Z,61.47
2018-07-14T19:46:14.859Z,61.89
2018-07-14T19:48:43.671Z,61.56
2018-07-14T19:51:12.818Z,61.65
2018-07-14T19:53:41.595Z,61.18
2018-07-14T19:56:10.503Z,62.14
2018-07-14T19:58:40.387Z,61.59
2018-07-14T20:01:09.678Z,62.62
2018-07-14T20:03:39.170Z,62.00
2018-07-14T20:06:07.870Z,63.71
2018-07-14T20:08:36.867Z,63.04
2018-07-14T20:11:05.746Z,62.72
2018-07-14T20:13:34.471Z,63.17
2018-07-14T20:16:03.496Z,63.07
2018-07-14T20:18:32.331Z,63.35
2018-07-14T20:21:01.345Z,63.39
2018-07-14T20:23:30.339Z,63.65
2018-07-14T20:25:59.025Z,63.11
2018-07-14T20:28:27.728Z,63.80
2018-07-14T20:30:56.565Z,63.71
2018-07-14T20:33:25.396Z,63.41
2018-07-14T20:35:54.137Z,64.36
2018-07-14T20:38:22.878Z,64.26
2018-07-14T20:40:51.564Z,64.04
2018-07-14T20:43:20.322Z,64.25
2018-07-14T20:45:49.004Z,65.13
2018-07-14T20:48:17.744Z,64.31
2018-07-14T20:50:46.668Z,64.78
2018-07-14T20:53:15.315Z,64.91
2018-07-14T20:55:44.008Z,65.74
2018-07-14T20:58:12.708Z,65.12
2018-07-14T21:00:41.373Z,66.12
2018-07-14T21:03:10.076Z,65.78
2018-07-14T21:05:38.742Z,66.54
2018-07-14T21:08:07.449Z,66.03
2018-07-14T21:10:36.250Z,65.81
2018-07-14T21:13:04.943Z,66.10
2018-07-14T21:15:33.679Z,65.37
2018-07-14T21:18:02.378Z,65.30
2018-07-14T21:20:31.339Z,66.37
2018-07-14T21:23:00.009Z,65.63
2018-07-14T21:25:29.042Z,66.48
2018-07-14T21:27:57.787Z,65.79
2018-07-14T21:30:26.494Z,65.31
2018-07-14T21:32:55.638Z,66.01
2018-07-14T21:35:24.461Z,65.99
2018-07-14T21:37:53.167Z,65.79
2018-07-14T21:40:21.838Z,65.77
2018-07-14T21:42:50.512Z,66.26
2018-07-14T21:45:19.312Z,66.44
2018-07-14T21:47:47.960Z,66.33
2018-07-14T21:50:16.687Z,66.39
2018-07-14T21:52:45.652Z,66.61
2018-07-14T21:55:14.328Z,66.83
2018-07-14T21:57:43.007Z,67.48
2018-07-14T22:00:21.490Z,67.93
2018-07-14T22:02:50.210Z,67.50
2018-07-14T22:05:18.887Z,68.03
2018-07-14T22:07:47.644Z,67.54
2018-07-14T22:10:16.446Z,67.74
2018-07-14T22:12:45.082Z,68.48
2018-07-14T22:15:13.965Z,67.82
2018-07-14T22:17:42.688Z,67.92
2018-07-14T22:20:11.503Z,68.30
2018-07-14T22:22:40.224Z,69.31
2018-07-14T22:25:09.127Z,68.73
2018-07-14T22:27:37.859Z,69.57
2018-07-14T22:30:06.632Z,68.82
2018-07-14T22:32:35.315Z,69.11
2018-07-14T22:35:04.114Z,68.75
2018-07-14T22:37:32.775Z,69.44
2018-07-14T22:40:01.502Z,68.82
2018-07-14T22:42:30.223Z,69.10
2018-07-14T22:44:58.890Z,68.92
2018-07-14T22:47:27.627Z,69.31
2018-07-14T22:49:56.351Z,69.48
2018-07-14T22:52:25.325Z,70.00
2018-07-14T22:54:54.023Z,70.13
2018-07-14T22:57:22.674Z,69.84
2018-07-14T22:59:51.299Z,70.67
2018-07-14T23:02:19.979Z,70.39
2018-07-14T23:04:48.664Z,70.04
2018-07-14T23:07:17.336Z,69.91
2018-07-14T23:09:46.023Z,69.50
2018-07-14T23:12:14.696Z,69.67
2018-07-14T23:14:43.670Z,69.16
2018-07-14T23:17:12.659Z,69.01
2018-07-14T23:19:41.404Z,68.78
2018-07-14T23:22:10.067Z,68.38
2018-07-14T23:24:38.709Z,68.42
2018-07-14T23:27:07.465Z,67.30
2018-07-14T23:29:36.126Z,67.19
2018-07-14T23:32:04.855Z,67.23
2018-07-14T23:34:34.048Z,67.19
2018-07-14T23:37:02.737Z,67.08
2018-07-14T23:39:31.411Z,66.24
2018-07-14T23:42:00.069Z,66.32
2018-07-14T23:44:28.758Z,66.35
2018-07-14T23:46:57.416Z,66.84
2018-07-14T23:49:26.098Z,65.61
2018-07-14T23:51:54.835Z,65.89
2018-07-14T23:54:23.506Z,65.92
2018-07-14T23:56:52.479Z,66.23
2018-07-14T23:59:21.231Z,65.30
